Flight Track Log - Related Links

Times and Time Zones

All times are in EDT time to prevent confusion due to time zone crossing. See the RPA3153 flight status page for this flight to view local times or setup timezone preferences in your user account.

Time Position Orientation Groundspeed Altitude Reporting Facility
EDT Latitude Longitude Course Direction KTS MPH feet Rate Location/Type
Fri 07:20:42 AM 44.3694 -73.1517 195° South 259 298 4,400  Level Boston Center
Fri 07:21:00 AM 44.1694 -73.2615 195° South  Level FlightAware Approximate
Fri 07:21:42 AM 44.2986 -73.1825 197° South 288 331 8,200  Level Boston Center
Fri 07:22:00 AM 44.0697 -73.2989 195° South  Level FlightAware Approximate
Fri 07:22:42 AM 44.2211 -73.2164 197° South 286 329 11,000  Level Boston Center
Fri 07:23:00 AM 43.9694 -73.3325 194° South  Level FlightAware Approximate
Fri 07:23:42 AM 44.1458 -73.2850 213° Southwest 303 349 13,300  Level Boston Center
Fri 07:24:00 AM 43.8694 -73.3678 195° South  Level FlightAware Approximate
Fri 07:24:42 AM 44.0597 -73.3586 212° Southwest 344 396 15,800  Level Boston Center
Fri 07:25:00 AM 43.7698 -73.4052 195° South  Level FlightAware Approximate
Fri 07:25:42 AM 43.9758 -73.4325 212° Southwest 359 413 17,800  Level Boston Center
Fri 07:26:00 AM 43.6702 -73.4425 195° South  Level FlightAware Approximate
Fri 07:26:42 AM 43.8875 -73.5117 213° Southwest 374 430 20,100  Level Boston Center
Fri 07:27:42 AM 43.7992 -73.5878 212° Southwest 374 430 22,000 1,583 Climbing Boston Center
Fri 07:29:06 AM 43.6942 -73.6778 212° Southwest 395 455 23,900 833 Climbing Boston Center
Fri 07:30:06 AM 43.5636 -73.7897 212° Southwest 417 480 24,000 50 Climbing Boston Center
Fri 07:31:06 AM 43.4606 -73.8761 211° Southwest 429 494 24,000  Level Boston Center
Fri 07:32:06 AM 43.3719 -73.9567 213° Southwest 434 499 24,000  Level Boston Center
Fri 07:33:06 AM 43.2708 -74.0397 211° Southwest 434 499 24,000  Level Boston Center
Fri 07:34:06 AM 43.1714 -74.1283 213° Southwest 434 499 24,000  Level Boston Center
Fri 07:35:06 AM 43.0639 -74.2219 212° Southwest 434 499 24,000  Level Boston Center
Fri 07:36:18 AM 42.9603 -74.3069 211° Southwest 434 499 24,000  Level Boston Center
Fri 07:37:30 AM 42.8397 -74.4108 212° Southwest 434 499 24,000  Level Boston Center
Fri 07:38:30 AM 42.7214 -74.5089 211° Southwest 434 499 24,000  Level Boston Center
Fri 07:39:30 AM 42.6197 -74.5931 211° Southwest 434 499 24,000  Level Boston Center
Fri 07:40:30 AM 42.5181 -74.6767 211° Southwest 434 499 24,000  Level Boston Center
Fri 07:41:30 AM 42.4161 -74.7631 212° Southwest 434 499 24,000  Level Boston Center
Fri 07:42:30 AM 42.3186 -74.8464 212° Southwest 434 499 24,000 -857 Level Boston Center
Fri 07:44:39 AM 42.1011 -75.0222 211° Southwest 445 512 21,300 -1,365 Descending New York Center
Fri 07:45:39 AM 42.0089 -75.0972 211° Southwest 423 487 19,700 -1,150 Descending New York Center
Fri 07:46:39 AM 41.9167 -75.1747 212° Southwest 400 460 19,000 -500 Descending New York Center
Fri 07:47:39 AM 41.8264 -75.2467 211° Southwest 394 453 18,700 -595 Descending New York Center
Fri 07:48:40 AM 41.7383 -75.3186 211° Southwest 389 448 17,800 -1,091 Descending New York Center
Fri 07:49:40 AM 41.6611 -75.3828 212° Southwest 374 430 16,500 -1,587 Descending New York Center
Fri 07:50:41 AM 41.5728 -75.4542 211° Southwest 379 436 14,600 -2,017 Descending New York Center
Fri 07:51:39 AM 41.4803 -75.5281 211° Southwest 373 429 12,500 -1,322 Descending New York Center
Fri 07:52:39 AM 41.3967 -75.5914 210° Southwest 361 415 12,000 -248 Descending New York Center
Fri 07:53:40 AM 41.3103 -75.6597 211° Southwest 361 415 12,000  Level New York Center
Fri 07:54:39 AM 41.2258 -75.6867 193° South 339 390 12,000  Level New York Center
Fri 07:55:40 AM 41.1322 -75.6883 181° South 339 390 12,000  Level New York Center
Fri 07:56:41 AM 41.0239 -75.6886 180° South 354 407 12,000  Level New York Center
Fri 07:57:41 AM 40.9258 -75.6869 179° South 360 414 12,000  Level New York Center
Fri 07:58:39 AM 40.8258 -75.6881 180° South 360 414 12,000  Level New York Center
Fri 07:59:39 AM 40.7464 -75.6467 158° South 348 400 12,000 -295 Level New York Center
Fri 08:00:41 AM 40.6533 -75.5800 151° Southeast 348 400 11,400 -700 Descending New York Center
Fri 08:01:39 AM 40.5703 -75.5194 151° Southeast 348 400 10,600 -712 Descending New York Center
Fri 08:02:39 AM 40.4953 -75.4650 151° Southeast 329 379 10,000 -298 Descending New York Center
Fri 08:03:40 AM 40.4283 -75.4197 153° Southeast 314 361 10,000 -541 Level New York Center
Fri 08:04:41 AM 40.3447 -75.3706 156° South 304 350 8,900 -1,050 Descending New York Center
Fri 08:05:40 AM 40.2714 -75.3303 157° South 294 338 7,900 -1,026 Descending New York Center
Fri 08:06:38 AM 40.1931 -75.3603 196° South 278 320 6,900 -504 Descending New York Center
Fri 08:07:39 AM 40.1294 -75.3914 201° Southwest 284 327 6,900  Level New York Center
Fri 08:08:40 AM 40.0614 -75.4194 198° South 254 292 6,900  Level New York Center
Fri 08:09:38 AM 40.0039 -75.4022 167° South 233 268 6,900 -403 Level New York Center
Fri 08:10:39 AM 39.9414 -75.4006 179° South 221 254 6,100 -744 Descending New York Center
Fri 08:11:39 AM 39.9178 -75.4694 246° West 177 204 5,400 -645 Descending New York Center
Fri 08:12:40 AM 39.8961 -75.5439 249° West 199 229 4,800 -744 Descending New York Center
Fri 08:13:40 AM 39.8667 -75.6167 242° Southwest 219 252 3,900 -450 Descending Philadelphia TRACON
Fri 08:14:40 AM 39.8167 -75.6333 194° South 196 226 3,900 -333 Level Philadelphia TRACON
Fri 08:15:46 AM 39.8000 -75.5667 108° East 170 196 3,200 -476 Descending Philadelphia TRACON
Fri 08:16:46 AM 39.8167 -75.5000 72° East 168 193 2,900 -300 Descending Philadelphia TRACON
Fri 08:17:46 AM 39.8333 -75.4500 67° East 168 193 2,600 -300 Descending Philadelphia TRACON

Login

Don't have an account? Register now (free) for customized features, flight alerts, and more!